• Join FlightAware (Why Join?)
  • Login
  • US Flag 
02:03AM EDT


 

Airport Tracker/Info


-or-


 

Live Flight TrackerFlight Track Log ✈ N225SB ✈ 10-Sep-2013 ✈ KRME - KFTY

Flight Track Log - Related Links

Times and Time Zones

All times are in EDT time to prevent confusion due to time zone crossing. See the N225SB flight status page for this flight to view local times or setup timezone preferences in your user account.

Time Position Orientation Groundspeed Altitude Reporting Facility
EDT Latitude Longitude Course Direction KTS MPH feet Rate Location/Type
12:34PM 43.2531 -75.4392 318° Northwest 149 171 1,200  Level Boston Center
12:35PM 43.2650 -75.4542 318° Northwest 213 245 1,800 3,000 Climbing Boston Center
12:36PM 43.2972 -75.5756 290° West 211 243 7,200 3,000 Climbing Boston Center
12:37PM 43.2272 -75.6175 204° Southwest 194 223 9,700 2,280 Climbing Boston Center
12:38PM 43.1450 -75.6589 200° South 243 280 11,800 1,980 Climbing Boston Center
12:39PM 43.0583 -75.6997 199° South 282 325 13,800 2,040 Climbing Boston Center
12:40PM 42.9714 -75.7433 200° South 318 366 15,900 1,980 Climbing Boston Center
12:41PM 42.8828 -75.7867 200° South 337 388 17,800 1,680 Climbing Boston Center
12:42PM 42.7958 -75.8303 200° South 337 388 19,400 1,620 Climbing Boston Center
12:43PM 42.7228 -75.9053 217° Southwest 332 382 21,100 1,620 Climbing Boston Center
12:44PM 42.6556 -75.9864 222° Southwest 332 382 22,800 1,680 Climbing Boston Center
12:46PM 42.5550 -76.1042 221° Southwest 318 366 25,500 1,560 Climbing New York Center
12:47PM 42.4850 -76.1828 220° Southwest 318 366 26,800 1,140 Climbing New York Center
12:48PM 42.4144 -76.2669 221° Southwest 330 380 27,800 900 Climbing New York Center
12:49PM 42.3394 -76.3558 221° Southwest 341 392 28,600 720 Climbing New York Center
12:50PM 42.2606 -76.4444 220° Southwest 364 419 29,300 660 Climbing New York Center
12:51PM 42.1792 -76.5356 220° Southwest 375 432 30,000 600 Climbing New York Center
12:52PM 42.0953 -76.6317 220° Southwest 388 447 30,500 480 Climbing New York Center
12:53PM 42.0111 -76.7303 221° Southwest 393 452 31,000 600 Climbing New York Center
12:54PM 41.9250 -76.8283 220° Southwest 404 465 31,800 900 Climbing New York Center
12:55PM 41.8408 -76.9264 221° Southwest 404 465 32,800 960 Climbing New York Center
12:56PM 41.7589 -77.0192 220° Southwest 404 465 33,800 960 Climbing New York Center
12:57PM 41.6750 -77.1111 219° Southwest 404 465 34,800 1,020 Climbing New York Center
12:58PM 41.5906 -77.2086 221° Southwest 393 452 35,900 1,020 Climbing New York Center
12:59PM 41.5108 -77.2981 220° Southwest 376 433 36,900 660 Climbing New York Center
01:01PM 41.3731 -77.4506 220° Southwest 381 438 37,800 480 Climbing Cleveland Center
01:02PM 41.2922 -77.5403 220° Southwest 381 438 38,300 420 Climbing Cleveland Center
01:03PM 41.2192 -77.6183 219° Southwest 381 438 38,700 420 Climbing Cleveland Center
01:04PM 41.1358 -77.7103 220° Southwest 386 444 39,200 420 Climbing Cleveland Center
01:05PM 41.0547 -77.8019 220° Southwest 386 444 39,600 360 Climbing Cleveland Center
01:06PM 40.9714 -77.8908 219° Southwest 386 444 40,000 180 Climbing Cleveland Center
01:07PM 40.8881 -77.9792 219° Southwest 391 450 40,000  Level Cleveland Center
01:08PM 40.8025 -78.0733 220° Southwest 391 450 40,100  Climbing Cleveland Center
01:09PM 40.7089 -78.1753 220° Southwest 391 450 40,000 -60 Descending Cleveland Center
01:10PM 40.6233 -78.2714 220° Southwest 397 457 40,000  Level Cleveland Center
01:11PM 40.5333 -78.3675 219° Southwest 408 470 40,000  Level Cleveland Center
01:12PM 40.4436 -78.4633 219° Southwest 413 475 40,000  Level Cleveland Center
01:13PM 40.3556 -78.5586 220° Southwest 413 475 40,000  Level Cleveland Center
01:14PM 40.2678 -78.6539 220° Southwest 413 475 40,000  Level Cleveland Center
01:15PM 40.1775 -78.7489 219° Southwest 419 482 40,000  Level Cleveland Center
01:16PM 40.0975 -78.8353 220° Southwest 419 482 40,000  Level Cleveland Center
01:17PM 40.0072 -78.9297 219° Southwest 414 476 40,000  Level Cleveland Center
01:18PM 39.9128 -79.0294 219° Southwest 414 476 40,000  Level Cleveland Center
01:19PM 39.8222 -79.1236 219° Southwest 414 476 40,000  Level Cleveland Center
01:19PM 39.7386 -79.2103 219° Southwest 419 482 40,000  Level Washington Center
01:20PM 39.6589 -79.2978 220° Southwest 419 482 40,000  Level Washington Center
01:21PM 39.5703 -79.3931 220° Southwest 414 476 40,000  Level Washington Center
01:22PM 39.4800 -79.4850 218° Southwest 414 476 40,000  Level Washington Center
01:23PM 39.3892 -79.5794 219° Southwest 414 476 40,000  Level Washington Center
01:24PM 39.2967 -79.6708 217° Southwest 414 476 40,000  Level Washington Center
01:25PM 39.2081 -79.7625 219° Southwest 414 476 40,000  Level Washington Center
01:26PM 39.1172 -79.8561 219° Southwest 414 476 40,000  Level Washington Center
01:27PM 39.0261 -79.9550 220° Southwest 414 476 40,000  Level Washington Center
01:28PM 38.9353 -80.0458 218° Southwest 419 482 40,000  Level Washington Center
01:30PM 38.7797 -80.1956 217° Southwest 425 489 40,000  Level Indianapolis Center
01:31PM 38.6872 -80.2894 218° Southwest 423 487 40,000  Level Indianapolis Center
01:32PM 38.5936 -80.3814 218° Southwest 423 487 40,000  Level Indianapolis Center
01:33PM 38.4997 -80.4764 218° Southwest 427 491 40,000  Level Indianapolis Center
01:34PM 38.4050 -80.5692 218° Southwest 428 493 40,000  Level Indianapolis Center
01:35PM 38.3103 -80.6636 218° Southwest 429 494 40,000  Level Indianapolis Center
01:36PM 38.2153 -80.7581 218° Southwest 431 496 40,000  Level Indianapolis Center
01:37PM 38.1178 -80.8519 217° Southwest 434 499 40,000  Level Indianapolis Center
01:38PM 38.0219 -80.9475 218° Southwest 436 502 40,000  Level Indianapolis Center
01:39PM 37.9053 -81.0608 217° Southwest 438 504 40,000  Level Indianapolis Center
01:40PM 37.8194 -81.1453 218° Southwest 435 501 40,000  Level Indianapolis Center
01:41PM 37.7064 -81.2547 217° Southwest 439 505 40,000  Level Indianapolis Center
01:42PM 37.6131 -81.3444 217° Southwest 436 502 40,000  Level Indianapolis Center
01:43PM 37.5200 -81.4361 218° Southwest 437 503 40,000  Level Indianapolis Center
01:44PM 37.4214 -81.5292 217° Southwest 439 505 40,000  Level Indianapolis Center
01:45PM 37.3069 -81.6392 217° Southwest 441 507 40,000  Level Indianapolis Center
01:46PM 37.2078 -81.7325 217° Southwest 443 510 40,000  Level Indianapolis Center
01:47PM 37.1089 -81.8264 217° Southwest 443 510 40,000  Level Indianapolis Center
01:49PM 37.0097 -81.9200 217° Southwest 443 510 40,000  Level Indianapolis Center
01:50PM 36.9106 -82.0131 217° Southwest 443 510 40,000  Level Indianapolis Center
01:51PM 36.8089 -82.1072 217° Southwest 448 516 40,000  Level Indianapolis Center
01:52PM 36.7053 -82.1933 214° Southwest 443 510 40,000  Level Indianapolis Center
01:53PM 36.5819 -82.2911 212° Southwest 457 526 40,000  Level Atlanta Center
01:54PM 36.4747 -82.3811 214° Southwest 457 526 40,000  Level Atlanta Center
01:55PM 36.3714 -82.4658 213° Southwest 457 526 40,000  Level Atlanta Center
01:56PM 36.2642 -82.5556 214° Southwest 464 534 40,000 -300 Level Atlanta Center
01:57PM 36.1589 -82.6397 213° Southwest 464 534 39,500 -660 Descending Atlanta Center
01:58PM 36.0658 -82.7183 214° Southwest 464 534 38,700 -900 Descending Atlanta Center
01:59PM 35.9603 -82.8047 214° Southwest 464 534 37,800 -960 Descending Atlanta Center
02:00PM 35.8547 -82.8908 213° Southwest 456 525 36,800 -1,080 Descending Atlanta Center
02:01PM 35.7511 -82.9769 214° Southwest 461 531 35,700 -1,200 Descending Atlanta Center
02:02PM 35.6433 -83.0625 213° Southwest 461 531 34,400 -1,620 Descending Atlanta Center
02:03PM 35.5356 -83.1481 213° Southwest 461 531 32,500 -1,200 Descending Atlanta Center
02:04PM 35.4214 -83.2411 214° Southwest 461 531 32,000 -300 Descending Atlanta Center
02:05PM 35.3136 -83.3286 214° Southwest 466 536 32,000 -600 Level Atlanta Center
02:06PM 35.2056 -83.4133 213° Southwest 466 536 30,800 -1,860 Descending Atlanta Center
02:07PM 35.1017 -83.4981 214° Southwest 466 536 28,300 -2,760 Descending Atlanta Center
02:08PM 34.9914 -83.5825 212° Southwest 459 528 25,300 -2,160 Descending Atlanta Center
02:09PM 34.8872 -83.6667 214° Southwest 464 534 24,000 -1,680 Descending Atlanta Center
02:10PM 34.7811 -83.7453 211° Southwest 459 528 22,000 -2,700 Descending Atlanta Center
02:11PM 34.6853 -83.8242 214° Southwest 441 507 18,700 -3,120 Descending Atlanta Center
02:12PM 34.5914 -83.8950 212° Southwest 413 475 15,800 -3,000 Descending Atlanta Center
02:13PM 34.5017 -83.9683 214° Southwest 407 468 12,800 -2,760 Descending Atlanta Center
02:14PM 34.4100 -84.0211 205° Southwest 388 447 10,300 -2,280 Descending Atlanta Center
02:15PM 34.3328 -84.0639 205° Southwest 348 400 8,300 -1,200 Descending Atlanta Center
02:16PM 34.2700 -84.1042 208° Southwest 296 341 8,000 -360 Descending Atlanta Center
02:17PM 34.2094 -84.1669 221° Southwest 284 327 7,600 -900 Descending Atlanta Center
02:18PM 34.1511 -84.2294 222° Southwest 290 334 6,200 -1,320 Descending Atlanta Center
02:19PM 34.0944 -84.2897 221° Southwest 278 320 5,000 -600 Descending Atlanta Center
02:20PM 34.0444 -84.3447 222° Southwest 258 297 5,000  Level Atlanta Center
02:21PM 33.9961 -84.3947 221° Southwest 241 277 5,000 -360 Level Atlanta Center
02:22PM 33.9481 -84.4444 221° Southwest 236 272 4,300 -900 Descending Atlanta Center
02:23PM 33.8872 -84.4917 213° Southwest 236 272 3,200 -780 Descending Atlanta Center
02:24PM 33.8500 -84.5333 223° Southwest 199 229 2,800 -540 Descending Atlanta TRACON
02:25PM 33.8000 -84.5667 209° Southwest 171 197 2,200 -720 Descending Atlanta TRACON
02:26PM 33.7667 -84.5500 157° South 146 168 1,400 -840 Descending Atlanta TRACON
02:28PM 33.7667 -84.5167 90° East  Level FlightAware Approximate
02:35PM 33.7791 -84.5214 90° East  Level Estimated